createdAt,value
2019-05-13T00:00:41.757Z,9.96
2019-05-13T00:05:47.260Z,10.00
2019-05-13T00:10:54.204Z,9.98
2019-05-13T00:15:59.838Z,10.00
2019-05-13T00:21:05.375Z,10.11
2019-05-13T00:26:11.053Z,10.18
2019-05-13T00:31:16.448Z,10.21
2019-05-13T00:36:24.211Z,10.21
2019-05-13T00:41:29.149Z,10.23
2019-05-13T00:46:35.327Z,10.30
2019-05-13T00:51:40.848Z,10.32
2019-05-13T00:56:46.451Z,10.38
2019-05-13T01:01:53.311Z,10.41
2019-05-13T01:06:58.944Z,10.44
2019-05-13T01:12:05.718Z,10.46
2019-05-13T01:17:11.523Z,10.44
2019-05-13T01:22:17.906Z,10.44
2019-05-13T01:27:24.964Z,10.39
2019-05-13T01:32:30.679Z,10.32
2019-05-13T01:37:42.143Z,10.27
2019-05-13T01:42:44.485Z,10.19
2019-05-13T01:47:50.953Z,10.09
2019-05-13T01:52:56.407Z,10.07
2019-05-13T01:58:04.168Z,10.06
2019-05-13T02:03:08.960Z,9.98
2019-05-13T02:08:14.645Z,10.01
2019-05-13T02:13:20.163Z,9.96
2019-05-13T02:18:25.725Z,9.91
2019-05-13T02:23:33.854Z,9.92
2019-05-13T02:28:38.309Z,9.90
2019-05-13T02:33:43.732Z,9.92
2019-05-13T02:38:49.229Z,9.83
2019-05-13T02:43:55.054Z,9.86
2019-05-13T02:49:03.179Z,9.99
2019-05-13T02:54:07.731Z,10.02
2019-05-13T02:59:13.554Z,9.99
2019-05-13T03:04:18.955Z,9.97
2019-05-13T03:09:24.448Z,9.98
2019-05-13T03:14:32.312Z,10.01
2019-05-13T03:19:37.157Z,9.98
2019-05-13T03:24:43.132Z,9.89
2019-05-13T03:29:48.715Z,9.85
2019-05-13T03:34:56.673Z,9.79
2019-05-13T03:40:03.274Z,9.81
2019-05-13T03:45:08.797Z,9.88
2019-05-13T03:50:14.586Z,9.85
2019-05-13T03:55:23.201Z,9.89
2019-05-13T04:00:27.729Z,9.77
2019-05-13T04:05:33.779Z,9.80
2019-05-13T04:10:42.126Z,9.82
2019-05-13T04:15:46.597Z,9.83
2019-05-13T04:20:53.197Z,9.83
2019-05-13T04:26:02.634Z,9.82
2019-05-13T04:31:07.236Z,9.78
2019-05-13T04:36:13.675Z,9.79
2019-05-13T04:41:22.636Z,9.81
2019-05-13T04:46:27.651Z,9.87
2019-05-13T04:51:33.439Z,9.87
2019-05-13T04:56:42.200Z,9.89
2019-05-13T05:02:04.965Z,9.83
2019-05-13T05:07:18.707Z,9.90
2019-05-13T05:12:58.475Z,9.97
2019-05-13T05:18:24.648Z,10.08
2019-05-13T05:23:42.262Z,10.20
2019-05-13T05:29:02.803Z,10.27
2019-05-13T05:34:29.520Z,10.40
2019-05-13T05:39:36.793Z,10.45
2019-05-13T05:44:45.393Z,10.57
2019-05-13T05:49:53.615Z,10.68
2019-05-13T05:55:02.426Z,10.75
2019-05-13T06:00:08.548Z,10.83
2019-05-13T06:05:14.230Z,10.90
2019-05-13T06:10:19.710Z,10.96
2019-05-13T06:15:25.659Z,11.08
2019-05-13T06:20:31.769Z,11.14
2019-05-13T06:25:37.446Z,11.27
2019-05-13T06:30:42.985Z,11.38
2019-05-13T06:35:48.441Z,11.47
2019-05-13T06:41:02.687Z,11.52
2019-05-13T06:46:01.829Z,11.62
2019-05-13T06:51:07.667Z,11.81
2019-05-13T06:56:13.351Z,11.93
2019-05-13T07:01:21.746Z,12.23
2019-05-13T07:06:27.460Z,12.48
2019-05-13T07:11:33.046Z,12.38
2019-05-13T07:16:38.945Z,12.30
2019-05-13T07:21:44.364Z,12.47
2019-05-13T07:26:52.173Z,12.47
2019-05-13T07:31:58.427Z,12.43
2019-05-13T07:37:05.024Z,12.45
2019-05-13T07:42:12.367Z,12.55
2019-05-13T07:47:17.687Z,12.65
2019-05-13T07:52:23.853Z,12.63
2019-05-13T07:57:31.690Z,12.66
2019-05-13T08:02:36.476Z,12.74
2019-05-13T08:07:42.343Z,12.81
2019-05-13T08:12:47.686Z,12.98
2019-05-13T08:17:53.365Z,13.00
2019-05-13T08:22:58.885Z,12.87
2019-05-13T08:28:04.653Z,12.80
2019-05-13T08:33:12.530Z,12.84
2019-05-13T08:38:23.005Z,12.99
2019-05-13T08:43:28.765Z,12.93
2019-05-13T08:48:34.299Z,13.09
2019-05-13T08:53:42.300Z,13.22
2019-05-13T08:58:47.325Z,13.37
2019-05-13T09:03:52.932Z,13.62
2019-05-13T09:09:02.404Z,14.19
2019-05-13T09:14:11.260Z,15.03
2019-05-13T09:19:21.985Z,15.33
2019-05-13T09:24:34.132Z,15.42
2019-05-13T09:29:35.403Z,15.90
2019-05-13T09:34:42.177Z,16.37
2019-05-13T09:39:47.960Z,16.12
2019-05-13T09:44:54.649Z,16.44
2019-05-13T09:50:04.607Z,16.06
2019-05-13T09:55:25.290Z,15.91
2019-05-13T10:00:18.413Z,16.21
2019-05-13T10:05:28.053Z,15.90
2019-05-13T10:10:33.568Z,16.09
2019-05-13T10:15:41.791Z,15.98
2019-05-13T10:20:52.878Z,16.41
2019-05-13T10:26:03.245Z,16.38
2019-05-13T10:31:08.232Z,16.56
2019-05-13T10:36:17.111Z,16.43
2019-05-13T10:41:25.385Z,16.43
2019-05-13T10:46:32.131Z,16.14
2019-05-13T10:51:41.818Z,15.91
2019-05-13T10:56:46.693Z,15.86
2019-05-13T11:01:52.552Z,15.85
2019-05-13T11:06:59.400Z,16.05
2019-05-13T11:12:05.105Z,16.71
2019-05-13T11:17:15.080Z,16.64
2019-05-13T11:22:22.514Z,16.51
2019-05-13T11:27:27.855Z,16.59
2019-05-13T11:32:34.243Z,16.77
2019-05-13T11:37:43.497Z,16.24
2019-05-13T11:42:48.053Z,16.43
2019-05-13T11:47:53.527Z,16.45
2019-05-13T11:52:59.033Z,16.51
2019-05-13T11:58:04.809Z,16.43
2019-05-13T12:03:10.347Z,16.00
2019-05-13T12:08:16.070Z,16.43
2019-05-13T12:18:28.895Z,16.65
2019-05-13T12:23:34.519Z,16.67
2019-05-13T12:28:42.132Z,16.94
2019-05-13T12:33:47.339Z,16.68
2019-05-13T12:38:53.896Z,16.19
2019-05-13T12:44:01.788Z,16.53
2019-05-13T12:49:07.417Z,16.74
2019-05-13T12:54:14.071Z,16.56
2019-05-13T12:59:22.256Z,16.07
2019-05-13T13:04:27.035Z,16.52
2019-05-13T13:09:33.411Z,16.66
2019-05-13T13:14:43.215Z,16.57
2019-05-13T13:19:46.468Z,16.29
2019-05-13T13:24:57.110Z,16.50
2019-05-13T13:30:04.342Z,17.08
2019-05-13T13:35:06.864Z,16.86
2019-05-13T13:40:13.008Z,16.58
2019-05-13T13:45:18.821Z,16.62
2019-05-13T13:50:25.121Z,16.69
2019-05-13T13:55:32.061Z,16.19
2019-05-13T14:00:47.270Z,16.19
2019-05-13T14:05:45.243Z,16.36
2019-05-13T14:06:31.862Z,16.44
2019-05-13T14:10:51.823Z,16.75
2019-05-13T14:15:57.349Z,16.72
2019-05-13T14:21:03.521Z,16.41
2019-05-13T14:26:09.021Z,16.11
2019-05-13T14:31:14.641Z,16.12
2019-05-13T14:36:22.605Z,15.96
2019-05-13T14:41:27.542Z,15.86
2019-05-13T14:46:46.774Z,16.14
2019-05-13T14:51:41.541Z,15.96
2019-05-13T14:56:47.215Z,15.90
2019-05-13T15:01:52.682Z,16.04
2019-05-13T15:06:58.459Z,15.89
2019-05-13T15:12:04.370Z,15.46
2019-05-13T15:17:12.520Z,14.83
2019-05-13T15:22:17.282Z,14.72
2019-05-13T15:27:22.756Z,14.63
2019-05-13T15:32:28.387Z,14.49
2019-05-13T15:37:34.011Z,14.29
2019-05-13T15:42:39.581Z,14.29
2019-05-13T15:47:45.164Z,14.37
2019-05-13T15:52:50.592Z,14.31
2019-05-13T15:57:56.366Z,14.51
2019-05-13T16:03:01.910Z,14.62
2019-05-13T16:08:07.599Z,14.47
2019-05-13T16:13:13.182Z,14.40
2019-05-13T16:18:18.674Z,14.47
2019-05-13T16:23:24.545Z,14.39
2019-05-13T16:28:32.463Z,14.43
2019-05-13T16:33:37.120Z,14.40
2019-05-13T16:38:42.962Z,14.48
2019-05-13T16:43:48.496Z,13.98
2019-05-13T16:48:54.243Z,13.92
2019-05-13T16:53:59.905Z,13.67
2019-05-13T16:59:05.525Z,13.43
2019-05-13T17:04:12.641Z,13.51
2019-05-13T17:09:18.483Z,13.29
2019-05-13T17:14:24.010Z,13.21
2019-05-13T17:19:31.604Z,13.05
2019-05-13T17:24:37.190Z,13.01
2019-05-13T17:29:42.803Z,12.89
2019-05-13T17:34:48.688Z,12.86
2019-05-13T17:39:54.126Z,12.74
2019-05-13T17:44:59.605Z,12.60
2019-05-13T17:50:05.383Z,12.57
2019-05-13T17:55:11.857Z,12.50
2019-05-13T18:00:18.206Z,12.35
2019-05-13T18:05:23.826Z,12.24
2019-05-13T18:10:31.617Z,12.21
2019-05-13T18:15:36.557Z,12.12
2019-05-13T18:20:42.361Z,12.07
2019-05-13T18:25:47.927Z,11.93
2019-05-13T18:30:53.436Z,11.85
2019-05-13T18:35:58.923Z,11.85
2019-05-13T18:41:04.616Z,11.73
2019-05-13T18:46:12.344Z,11.68
2019-05-13T18:51:17.634Z,11.57
2019-05-13T18:56:23.341Z,11.49
2019-05-13T19:01:28.923Z,11.39
2019-05-13T19:06:34.383Z,11.29
2019-05-13T19:11:42.438Z,11.20
2019-05-13T19:16:46.983Z,11.05
2019-05-13T19:21:52.483Z,10.94
2019-05-13T19:26:57.863Z,10.80
2019-05-13T19:32:03.437Z,10.65
2019-05-13T19:37:11.386Z,10.56
2019-05-13T19:42:16.486Z,10.55
2019-05-13T19:47:22.049Z,10.45
2019-05-13T19:52:27.444Z,10.35
2019-05-13T19:57:32.865Z,10.32
2019-05-13T20:02:38.343Z,10.27
2019-05-13T20:07:43.845Z,10.17
2019-05-13T20:12:51.251Z,10.19
2019-05-13T20:17:56.725Z,10.10
2019-05-13T20:23:02.749Z,10.05
2019-05-13T20:28:08.457Z,10.07
2019-05-13T20:33:13.977Z,10.06
2019-05-13T20:38:19.561Z,10.07
2019-05-13T20:43:25.400Z,10.02
2019-05-13T20:48:32.013Z,10.10
2019-05-13T20:53:38.037Z,10.14
2019-05-13T20:58:43.526Z,10.12
2019-05-13T21:03:51.370Z,9.96
2019-05-13T21:08:56.322Z,9.87
2019-05-13T21:14:01.755Z,10.00
2019-05-13T21:19:07.395Z,10.02
2019-05-13T21:24:12.863Z,10.03
2019-05-13T21:29:18.441Z,9.97
2019-05-13T21:34:23.983Z,9.94
2019-05-13T21:39:31.809Z,10.05
2019-05-13T21:44:36.863Z,9.95
2019-05-13T21:49:42.526Z,9.83
2019-05-13T21:54:47.957Z,9.72
2019-05-13T21:59:53.584Z,9.81
2019-05-13T22:05:00.964Z,9.82
2019-05-13T22:10:06.979Z,9.84
2019-05-13T22:15:12.876Z,9.89
2019-05-13T22:20:18.718Z,9.85
2019-05-13T22:25:24.143Z,9.71
2019-05-13T22:30:33.373Z,9.74
2019-05-13T22:35:37.009Z,9.93
2019-05-13T22:40:42.455Z,9.96
2019-05-13T22:45:48.065Z,9.95
2019-05-13T22:50:53.515Z,10.00
2019-05-13T22:55:59.242Z,9.98
2019-05-13T23:01:04.852Z,9.90
2019-05-13T23:06:12.125Z,9.94
2019-05-13T23:11:17.645Z,9.98
2019-05-13T23:16:23.286Z,9.99
2019-05-13T23:21:31.140Z,10.11
2019-05-13T23:26:37.240Z,10.14
2019-05-13T23:31:42.745Z,10.04
2019-05-13T23:36:48.646Z,9.89
2019-05-13T23:41:54.089Z,9.73
2019-05-13T23:46:59.901Z,9.72
2019-05-13T23:52:05.454Z,9.84
2019-05-13T23:57:11.829Z,9.84
